Time;durP1;ratioP1;P1;durP2;ratioP2;P2;SDS_P1;SDS_P2;PMS_P1;PMS_P2;Temp;Humidity;BMP_temperature;BMP_pressure;BME280_temperature;BME280_humidity;BME280_pressure;Samples;Min_cycle;Max_cycle;Signal;HPM_P1;HPM_P2
2021/11/20 00:01:31;;;;;;;;;12.00;10.50;;;;;10.69;70.14;102235.75;5098698;27;45308;-62
2021/11/20 00:03:56;;;;;;;;;12.00;10.75;;;;;10.70;69.83;102240.06;5080206;27;45944;-62
2021/11/20 00:06:25;;;;;;;;;10.00;9.25;;;;;10.70;69.89;102242.69;5097601;27;68542;-62
2021/11/20 00:08:51;;;;;;;;;16.25;13.25;;;;;10.71;69.70;102244.38;5080399;27;45308;-62
2021/11/20 00:11:17;;;;;;;;;10.25;9.25;;;;;10.69;69.82;102241.00;5097732;27;59405;-62
2021/11/20 00:13:43;;;;;;;;;10.00;9.25;;;;;10.69;69.77;102239.22;5098308;27;45561;-62
2021/11/20 00:16:09;;;;;;;;;11.50;10.50;;;;;10.68;69.81;102236.69;5079808;27;45367;-62
2021/11/20 00:18:34;;;;;;;;;13.25;10.25;;;;;10.69;69.79;102239.22;5079922;27;45369;-62
2021/11/20 00:21:03;;;;;;;;;10.75;10.75;;;;;10.68;69.85;102240.16;5079718;27;47068;-62
2021/11/20 00:23:35;;;;;;;;;13.00;10.75;;;;;10.67;70.08;102233.22;5098118;27;45250;-62
2021/11/20 00:26:01;;;;;;;;;13.75;10.50;;;;;10.66;69.75;102233.31;5097860;27;46610;-62
2021/11/20 00:28:53;;;;;;;;;10.50;10.00;;;;;10.62;70.05;102231.81;5096784;27;45446;-62
2021/11/20 00:31:19;;;;;;;;;12.00;10.25;;;;;10.62;69.90;102232.66;5064826;27;45496;-62
2021/11/20 00:33:44;;;;;;;;;11.75;10.25;;;;;10.61;69.83;102225.72;5097973;27;45246;-62
2021/11/20 00:36:09;;;;;;;;;14.00;11.00;;;;;10.62;70.13;102230.03;5079038;27;60851;-62
2021/11/20 00:38:35;;;;;;;;;16.50;9.00;;;;;10.61;70.16;102230.09;5079486;27;45387;-62
2021/11/20 00:41:05;;;;;;;;;8.25;8.00;;;;;10.60;70.18;102217.94;5096886;27;45411;-62
2021/11/20 00:43:30;;;;;;;;;10.25;10.00;;;;;10.57;70.19;102213.69;5097749;27;45330;-62
2021/11/20 00:45:56;;;;;;;;;9.00;7.25;;;;;10.57;70.09;102208.44;5097599;27;45427;-62
2021/11/20 00:48:23;;;;;;;;;8.00;8.00;;;;;10.56;70.57;102209.38;5097413;27;45383;-62
2021/11/20 00:50:51;;;;;;;;;9.25;8.00;;;;;10.54;70.21;102206.84;5097799;27;45386;-62
2021/11/20 00:53:16;;;;;;;;;9.00;8.25;;;;;10.53;70.50;102205.16;5097629;27;45360;-62
2021/11/20 00:55:41;;;;;;;;;13.00;9.75;;;;;10.54;70.73;102206.00;5097166;27;51256;-62
2021/11/20 00:58:07;;;;;;;;;10.00;10.00;;;;;10.54;70.82;102196.34;5096701;27;68421;-62
2021/11/20 01:00:39;;;;;;;;;12.50;10.50;;;;;10.53;70.36;102197.28;5097516;27;45296;-62
2021/11/20 01:03:05;;;;;;;;;12.50;10.00;;;;;10.56;70.73;102198.03;5079644;27;45371;-62
2021/11/20 01:05:31;;;;;;;;;14.75;14.25;;;;;10.54;70.44;102193.72;5096300;27;72663;-62
2021/11/20 01:07:56;;;;;;;;;13.50;12.25;;;;;10.53;70.37;102192.03;5097318;27;45675;-62
2021/11/20 01:10:23;;;;;;;;;16.00;13.50;;;;;10.53;70.69;102191.16;5097564;27;45414;-62
2021/11/20 01:12:48;;;;;;;;;12.00;11.00;;;;;10.52;70.52;102187.72;5097378;27;45545;-62
2021/11/20 01:15:17;;;;;;;;;11.75;11.50;;;;;10.52;70.84;102192.97;5096237;27;72802;-62
2021/11/20 01:17:43;;;;;;;;;17.25;12.50;;;;;10.51;70.95;102195.66;5079468;27;45898;-61
2021/11/20 01:20:09;;;;;;;;;12.25;12.25;;;;;10.48;71.22;102188.84;5097262;27;45944;-62
2021/11/20 01:22:35;;;;;;;;;14.75;11.75;;;;;10.49;71.23;102195.78;5097241;27;45462;-62
2021/11/20 01:25:00;;;;;;;;;16.25;12.25;;;;;10.47;70.94;102184.53;5096728;27;46080;-61
2021/11/20 01:27:26;;;;;;;;;13.75;11.50;;;;;10.48;70.90;102178.31;5079038;27;45333;-62
2021/11/20 01:29:52;;;;;;;;;21.50;13.75;;;;;10.49;71.13;102179.16;5097210;27;45358;-61
2021/11/20 01:32:18;;;;;;;;;15.50;13.00;;;;;10.47;71.08;102176.63;5097229;27;45253;-62
2021/11/20 01:34:45;;;;;;;;;12.25;12.25;;;;;10.47;71.39;102174.00;5097048;27;45391;-62
2021/11/20 01:37:10;;;;;;;;;13.75;13.25;;;;;10.50;71.25;102167.69;5079022;27;45249;-62
2021/11/20 01:39:37;;;;;;;;;18.00;15.50;;;;;10.49;71.37;102169.50;5096719;27;45500;-62
2021/11/20 01:42:15;;;;;;;;;15.75;13.00;;;;;10.49;71.00;102168.63;5079001;27;45338;-62
2021/11/20 01:44:50;;;;;;;;;17.00;15.75;;;;;10.47;70.86;102163.50;5096766;27;46623;-62
2021/11/20 01:47:25;;;;;;;;;11.00;11.00;;;;;10.45;71.38;102175.88;5096889;27;45973;-62
2021/11/20 01:50:05;;;;;;;;;17.00;15.00;;;;;10.45;70.92;102168.00;5079036;27;45335;-62
2021/11/20 01:53:02;;;;;;;;;20.00;15.75;;;;;10.46;71.32;102160.94;5098244;27;45289;-62
2021/11/20 01:55:32;;;;;;;;;17.25;15.50;;;;;10.44;71.38;102160.19;5100515;27;46546;-62
2021/11/20 01:58:12;;;;;;;;;20.50;14.50;;;;;10.40;71.24;102151.66;5081261;27;45791;-62
2021/11/20 02:01:05;;;;;;;;;24.25;17.00;;;;;10.41;71.46;102163.00;5100620;27;45519;-62
2021/11/20 02:03:51;;;;;;;;;17.50;16.75;;;;;10.38;71.83;102153.50;5100509;27;45232;-62
2021/11/20 02:06:25;;;;;;;;;16.50;15.50;;;;;10.38;71.75;102153.50;5092446;27;46302;-62
2021/11/20 02:09:14;;;;;;;;;16.00;14.50;;;;;10.36;71.67;102158.84;5082046;27;45271;-62
2021/11/20 02:11:48;;;;;;;;;19.50;17.25;;;;;10.35;71.62;102158.97;5082520;27;45411;-61
2021/11/20 02:14:15;;;;;;;;;18.75;18.50;;;;;10.31;71.63;102153.06;5100142;27;45376;-62
2021/11/20 02:16:47;;;;;;;;;15.75;12.50;;;;;10.28;71.93;102148.00;5100170;27;45344;-62
2021/11/20 02:19:16;;;;;;;;;19.00;13.75;;;;;10.28;71.56;102153.25;5100038;27;49920;-62
2021/11/20 02:21:54;;;;;;;;;18.00;13.25;;;;;10.26;71.29;102152.50;5099503;27;45319;-62
2021/11/20 02:24:19;;;;;;;;;16.25;10.00;;;;;10.24;71.41;102146.50;5065348;27;45246;-62
2021/11/20 02:26:45;;;;;;;;;17.50;12.25;;;;;10.22;71.11;102143.94;5099909;27;46583;-62
2021/11/20 02:29:12;;;;;;;;;11.50;10.00;;;;;10.20;70.90;102137.94;5098868;27;45470;-62
2021/11/20 02:31:42;;;;;;;;;14.75;10.50;;;;;10.17;70.76;102135.50;5100062;27;45616;-62
2021/11/20 02:34:07;;;;;;;;;12.25;11.25;;;;;10.17;71.14;102135.50;5081730;27;45304;-61
2021/11/20 02:36:33;;;;;;;;;11.25;9.00;;;;;10.14;71.08;102133.06;5081514;27;45628;-62
2021/11/20 02:39:06;;;;;;;;;14.00;10.00;;;;;10.14;70.66;102135.69;5099811;27;45351;-62
2021/11/20 02:41:33;;;;;;;;;14.00;11.50;;;;;10.15;70.69;102136.53;5099803;27;45326;-62
2021/11/20 02:44:01;;;;;;;;;10.50;8.50;;;;;10.11;70.77;102130.63;5099668;27;45487;-61
2021/11/20 02:46:28;;;;;;;;;11.00;8.75;;;;;10.08;70.69;102125.53;5099799;27;45660;-62
2021/11/20 02:48:53;;;;;;;;;9.50;9.25;;;;;10.06;70.85;102130.06;5081441;27;45384;-61
2021/11/20 02:51:25;;;;;;;;;8.25;7.50;;;;;10.04;70.57;102124.91;5080836;27;61255;-62
2021/11/20 02:53:54;;;;;;;;;13.75;8.00;;;;;10.02;70.74;102118.06;5081408;27;45664;-63
2021/11/20 02:56:21;;;;;;;;;6.00;6.00;;;;;10.00;70.77;102114.69;5099513;27;46530;-62
2021/11/20 02:58:46;;;;;;;;;11.25;8.50;;;;;9.97;70.63;102114.88;5081227;27;45997;-61
2021/11/20 03:01:18;;;;;;;;;7.50;6.50;;;;;9.91;70.40;102114.31;5080606;27;62329;-62
2021/11/20 03:03:44;;;;;;;;;7.50;7.50;;;;;9.89;70.29;102110.06;5098981;27;45315;-61
2021/11/20 03:06:09;;;;;;;;;7.50;7.00;;;;;9.86;70.68;102110.25;5099175;27;48026;-62
2021/11/20 03:08:34;;;;;;;;;9.25;8.75;;;;;9.82;70.98;102109.59;5080304;27;68169;-62
2021/11/20 03:11:00;;;;;;;;;10.25;7.50;;;;;9.80;70.92;102101.81;5098816;27;61274;-62
2021/11/20 03:13:25;;;;;;;;;7.25;6.75;;;;;9.80;71.31;102104.44;5098519;27;64344;-61
2021/11/20 03:15:51;;;;;;;;;9.75;8.25;;;;;9.81;71.07;102097.41;5099308;27;45992;-62
2021/11/20 03:18:16;;;;;;;;;12.75;8.50;;;;;9.84;71.18;102099.84;5080140;27;64580;-62
2021/11/20 03:20:42;;;;;;;;;8.25;8.25;;;;;9.84;71.02;102091.97;5081171;27;45394;-62
2021/11/20 03:23:13;;;;;;;;;9.75;7.00;;;;;9.83;71.38;102092.91;5081146;27;45306;-62
2021/11/20 03:25:38;;;;;;;;;7.50;7.50;;;;;9.84;71.02;102084.09;5098872;27;48642;-62
2021/11/20 03:28:04;;;;;;;;;10.25;7.75;;;;;9.85;71.49;102079.69;5098041;27;71402;-62
2021/11/20 03:30:29;;;;;;;;;8.25;8.25;;;;;9.86;71.00;102079.59;5098338;27;64528;-62
2021/11/20 03:32:55;;;;;;;;;9.00;8.00;;;;;9.86;71.20;102073.50;5097851;27;45430;-62
2021/11/20 03:35:20;;;;;;;;;10.00;7.25;;;;;9.85;71.49;102077.06;5080617;27;46240;-62
2021/11/20 03:37:46;;;;;;;;;6.25;6.00;;;;;9.83;71.41;102071.06;5098342;27;54153;-62
2021/11/20 03:40:11;;;;;;;;;8.25;6.25;;;;;9.80;71.03;102064.22;5098635;27;45516;-62
2021/11/20 03:42:37;;;;;;;;;6.50;5.00;;;;;9.78;71.49;102059.09;5098817;27;45534;-62
2021/11/20 03:45:04;;;;;;;;;7.00;5.00;;;;;9.79;71.31;102057.28;5098351;27;50078;-62
2021/11/20 03:47:30;;;;;;;;;7.00;5.50;;;;;9.78;71.09;102051.22;5098503;27;45248;-62
2021/11/20 03:49:55;;;;;;;;;4.75;4.00;;;;;9.78;70.91;102053.84;5098007;27;45232;-62
2021/11/20 03:52:20;;;;;;;;;3.00;2.00;;;;;9.76;70.99;102042.59;5098784;27;45380;-62
2021/11/20 03:54:46;;;;;;;;;4.00;2.75;;;;;9.75;70.76;102040.03;5097605;27;69178;-62
2021/11/20 03:57:11;;;;;;;;;2.00;2.00;;;;;9.74;70.84;102036.56;5098424;27;45259;-62
2021/11/20 03:59:37;;;;;;;;;2.00;2.00;;;;;9.75;70.80;102034.78;5097985;27;60066;-62
2021/11/20 04:02:03;;;;;;;;;3.25;3.00;;;;;9.74;70.88;102033.09;5079668;27;61832;-62
2021/11/20 04:04:28;;;;;;;;;3.00;3.00;;;;;9.75;70.86;102026.91;5098331;27;45496;-62
2021/11/20 04:06:53;;;;;;;;;4.00;4.00;;;;;9.74;70.72;102022.59;5079113;27;69256;-62
2021/11/20 04:09:19;;;;;;;;;2.50;2.50;;;;;9.74;70.93;102017.34;5079624;27;58362;-62
2021/11/20 04:11:46;;;;;;;;;3.00;3.00;;;;;9.74;70.86;102027.84;5098407;27;45568;-61
2021/11/20 04:14:18;;;;;;;;;2.00;2.00;;;;;9.75;70.72;102022.53;5080091;27;46222;-62
2021/11/20 04:16:44;;;;;;;;;4.00;3.00;;;;;9.75;70.75;102014.66;5078996;27;45999;-62
2021/11/20 04:19:09;;;;;;;;;2.50;2.00;;;;;9.75;70.52;102014.66;5097196;27;45349;-62
2021/11/20 04:21:36;;;;;;;;;3.75;1.75;;;;;9.76;70.93;102018.09;5097384;27;64680;-62
2021/11/20 04:24:02;;;;;;;;;3.25;2.00;;;;;9.75;70.85;102012.03;5097303;27;45675;-62
2021/11/20 04:26:28;;;;;;;;;2.00;2.00;;;;;9.76;70.81;102010.22;5096883;27;45225;-62
2021/11/20 04:28:53;;;;;;;;;3.00;2.00;;;;;9.76;70.79;102005.84;5079864;27;45249;-62
2021/11/20 04:31:19;;;;;;;;;4.75;2.00;;;;;9.77;70.57;102006.66;5098113;27;45558;-61
2021/11/20 04:33:45;;;;;;;;;4.75;2.50;;;;;9.76;70.67;101999.72;5097924;27;46055;-62
2021/11/20 04:36:11;;;;;;;;;3.00;3.00;;;;;9.76;70.63;101994.47;5097837;27;45282;-62
2021/11/20 04:38:36;;;;;;;;;4.25;3.00;;;;;9.76;70.94;102000.59;5079788;27;45268;-62
2021/11/20 04:41:02;;;;;;;;;3.00;2.00;;;;;9.76;70.86;101989.22;5096981;27;65468;-62
2021/11/20 04:43:27;;;;;;;;;3.25;3.00;;;;;9.74;70.71;101986.72;5097729;27;45286;-62
2021/11/20 04:45:53;;;;;;;;;6.25;4.00;;;;;9.74;71.18;101978.84;5097580;27;45518;-62
2021/11/20 04:48:19;;;;;;;;;4.75;4.00;;;;;9.74;71.09;101988.47;5097978;27;45443;-62
2021/11/20 04:50:44;;;;;;;;;5.50;4.00;;;;;9.74;71.01;101986.72;5097692;27;45492;-62
2021/11/20 04:53:10;;;;;;;;;5.50;4.50;;;;;9.74;71.00;101980.59;5079192;27;46585;-62
2021/11/20 04:55:35;;;;;;;;;6.00;5.25;;;;;9.70;70.65;101979.09;5078889;27;45482;-62
2021/11/20 04:58:00;;;;;;;;;6.25;6.00;;;;;9.65;71.05;101980.22;5079434;27;45482;-62
2021/11/20 05:00:39;;;;;;;;;8.75;7.00;;;;;9.63;70.86;101979.47;5097614;27;45335;-62
2021/11/20 05:03:07;;;;;;;;;6.25;5.00;;;;;9.60;71.34;101971.78;5097514;27;45613;-61
2021/11/20 05:05:34;;;;;;;;;5.00;4.50;;;;;9.60;71.33;101963.91;5097326;27;45802;-62
2021/11/20 05:07:59;;;;;;;;;5.00;5.00;;;;;9.60;71.55;101963.91;5079327;27;45446;-62
2021/11/20 05:10:24;;;;;;;;;4.75;4.00;;;;;9.60;71.44;101969.16;5096520;27;66088;-61
2021/11/20 05:12:50;;;;;;;;;3.50;3.50;;;;;9.61;71.48;101973.47;5097362;27;46140;-62
2021/11/20 05:15:15;;;;;;;;;4.00;4.00;;;;;9.61;71.23;101973.47;5096598;27;61570;-62
2021/11/20 05:17:41;;;;;;;;;5.00;4.00;;;;;9.62;71.60;101969.91;5096799;27;59246;-61
2021/11/20 05:20:07;;;;;;;;;4.25;4.00;;;;;9.61;71.15;101965.59;5097362;27;45273;-62
2021/11/20 05:22:33;;;;;;;;;5.00;3.25;;;;;9.62;71.48;101961.22;5097111;27;45725;-61
2021/11/20 05:24:58;;;;;;;;;6.00;3.75;;;;;9.61;71.00;101965.59;5095753;27;45854;-61
2021/11/20 05:27:23;;;;;;;;;4.75;4.75;;;;;9.61;71.04;101954.28;5078552;27;45646;-62
2021/11/20 05:32:17;;;;;;;;;4.00;4.00;;;;;9.62;71.14;101959.41;5096859;27;45285;-61
2021/11/20 05:34:42;;;;;;;;;5.50;3.75;;;;;9.62;71.27;101950.72;5096285;27;67885;-62
2021/11/20 05:37:08;;;;;;;;;5.50;4.00;;;;;9.63;70.96;101953.22;5096616;27;54132;-62
2021/11/20 05:39:33;;;;;;;;;4.00;4.00;;;;;9.64;71.09;101960.16;5096023;27;65005;-61
2021/11/20 05:41:59;;;;;;;;;3.00;3.00;;;;;9.64;70.89;101956.72;5096820;27;46431;-62
2021/11/20 05:44:24;;;;;;;;;4.25;4.00;;;;;9.63;70.84;101958.47;5096782;27;45327;-62
2021/11/20 05:46:51;;;;;;;;;3.75;3.00;;;;;9.62;71.10;101943.66;5094998;27;63308;-62
2021/11/20 05:49:17;;;;;;;;;4.25;3.75;;;;;9.60;71.00;101937.69;5078736;27;45466;-62
2021/11/20 05:51:42;;;;;;;;;5.25;4.00;;;;;9.59;70.77;101943.84;5095793;27;45407;-62
2021/11/20 05:54:08;;;;;;;;;4.00;3.00;;;;;9.58;71.17;101950.03;5096797;27;45493;-62
2021/11/20 05:56:33;;;;;;;;;6.50;4.50;;;;;9.57;70.94;101943.09;5095721;27;45403;-62
2021/11/20 05:58:59;;;;;;;;;6.00;3.25;;;;;9.54;71.25;101935.44;5096871;27;45357;-62
2021/11/20 06:01:24;;;;;;;;;5.25;3.50;;;;;9.55;71.09;101939.72;5096591;27;45440;-62
2021/11/20 06:03:49;;;;;;;;;5.00;5.00;;;;;9.53;70.89;101941.63;5096517;27;45296;-62
2021/11/20 06:06:15;;;;;;;;;5.00;5.00;;;;;9.51;70.80;101948.75;5096621;27;45792;-62
2021/11/20 06:08:41;;;;;;;;;5.00;4.00;;;;;9.47;71.20;101955.13;5096597;27;45166;-62
2021/11/20 06:11:06;;;;;;;;;5.25;4.25;;;;;9.42;71.38;101947.53;5096345;27;45323;-61
2021/11/20 06:13:32;;;;;;;;;5.00;4.00;;;;;9.39;71.45;101950.34;5095353;27;45350;-62
2021/11/20 06:15:57;;;;;;;;;3.00;3.00;;;;;9.39;71.27;101952.13;5077493;27;60930;-62
2021/11/20 06:18:23;;;;;;;;;4.75;3.00;;;;;9.38;71.27;101947.81;5096394;27;45482;-61
2021/11/20 06:20:49;;;;;;;;;3.75;3.00;;;;;9.39;71.34;101946.88;5096408;27;45495;-62
2021/11/20 06:23:15;;;;;;;;;5.75;3.25;;;;;9.38;71.01;101940.78;5096356;27;45369;-62
2021/11/20 06:25:40;;;;;;;;;4.75;3.00;;;;;9.38;71.18;101942.56;5096411;27;45252;-62
2021/11/20 06:28:05;;;;;;;;;4.00;3.75;;;;;9.39;71.20;101941.63;5095274;27;64326;-61
2021/11/20 06:30:32;;;;;;;;;4.75;4.75;;;;;9.38;71.40;101937.31;5077190;27;64920;-61
2021/11/20 06:32:58;;;;;;;;;6.00;5.75;;;;;9.37;71.41;101941.72;5096138;27;45260;-62
2021/11/20 06:35:25;;;;;;;;;5.50;4.75;;;;;9.38;71.70;101939.94;5096323;27;45308;-62
2021/11/20 06:37:50;;;;;;;;;4.75;4.00;;;;;9.38;71.59;101932.91;5078219;27;45259;-61
2021/11/20 06:40:21;;;;;;;;;3.75;3.75;;;;;9.38;71.61;101942.56;5097387;27;63670;-61
2021/11/20 06:42:47;;;;;;;;;3.75;3.50;;;;;9.39;71.47;101939.00;5099383;27;49546;-62
2021/11/20 06:45:14;;;;;;;;;4.25;4.25;;;;;9.37;71.85;101941.72;5098826;27;65073;-62
2021/11/20 06:47:40;;;;;;;;;4.75;4.75;;;;;9.37;71.70;101943.50;5099666;27;45350;-62
2021/11/20 06:50:05;;;;;;;;;6.25;6.00;;;;;9.36;71.68;101940.03;5099293;27;50726;-62
2021/11/20 06:52:31;;;;;;;;;6.50;5.75;;;;;9.37;71.45;101939.09;5099514;27;45370;-61
2021/11/20 06:54:56;;;;;;;;;5.25;5.00;;;;;9.36;71.50;101934.78;5080666;27;56043;-61
2021/11/20 07:00:30;;;;;;;;;10.00;5.00;;;;;9.35;71.51;101949.69;5036065;28;45568;-61
2021/11/20 07:02:55;;;;;;;;;10.25;7.00;;;;;9.34;71.45;101942.75;5070786;27;45330;-61
2021/11/20 07:05:20;;;;;;;;;5.00;5.00;;;;;9.33;71.79;101935.81;5099140;27;45480;-61
2021/11/20 07:07:46;;;;;;;;;14.50;11.50;;;;;9.32;71.67;101928.88;5080949;27;45521;-61
2021/11/20 07:10:14;;;;;;;;;7.50;6.00;;;;;9.34;71.85;101939.28;5064186;27;45444;-61
2021/11/20 07:12:39;;;;;;;;;7.50;7.00;;;;;9.33;71.85;101940.22;5098269;27;45803;-62
2021/11/20 07:15:05;;;;;;;;;6.00;5.25;;;;;9.32;71.79;101930.66;5098617;27;62816;-61
2021/11/20 07:17:30;;;;;;;;;5.75;4.00;;;;;9.32;71.38;101931.50;5080882;27;45199;-61
2021/11/20 07:19:56;;;;;;;;;7.50;6.50;;;;;9.32;71.53;101930.66;5098752;27;45243;-61
2021/11/20 07:22:21;;;;;;;;;5.00;5.00;;;;;9.30;72.12;101929.91;5098896;27;45369;-61
2021/11/20 07:24:47;;;;;;;;;5.00;4.25;;;;;9.31;72.00;101931.59;5097736;27;69043;-61
2021/11/20 07:27:12;;;;;;;;;9.75;7.75;;;;;9.31;72.31;101932.44;5098982;27;45355;-61
2021/11/20 07:29:38;;;;;;;;;5.50;5.50;;;;;9.31;71.97;101932.44;5098007;27;66169;-61
2021/11/20 07:32:04;;;;;;;;;5.25;5.00;;;;;9.34;72.01;101936.66;5080419;27;45465;-61
2021/11/20 07:34:29;;;;;;;;;8.75;7.50;;;;;9.34;71.89;101931.41;5080685;27;45390;-62
2021/11/20 07:36:56;;;;;;;;;7.00;5.50;;;;;9.33;71.77;101943.69;5098841;27;45291;-61
2021/11/20 07:39:22;;;;;;;;;7.00;5.50;;;;;9.35;71.92;101946.22;5098209;27;46092;-61
2021/11/20 07:41:47;;;;;;;;;6.75;5.00;;;;;9.37;71.90;101940.88;5098477;27;45265;-62
2021/11/20 07:44:13;;;;;;;;;7.50;6.75;;;;;9.37;71.88;101939.09;5063485;27;45303;-62
2021/11/20 07:46:38;;;;;;;;;4.50;4.00;;;;;9.38;72.00;101938.16;5098578;27;45173;-62
2021/11/20 07:49:04;;;;;;;;;7.25;6.00;;;;;9.40;71.83;101938.06;5098388;27;45316;-61
2021/11/20 07:51:29;;;;;;;;;6.00;4.75;;;;;9.41;71.67;101939.75;5098117;27;45269;-62
2021/11/20 07:53:55;;;;;;;;;7.50;5.00;;;;;9.40;71.55;101933.66;5097594;27;64507;-61
2021/11/20 07:56:20;;;;;;;;;7.00;6.00;;;;;9.40;71.47;101938.06;5098179;27;50842;-61
2021/11/20 07:58:46;;;;;;;;;7.25;7.25;;;;;9.37;71.50;101933.84;5098300;27;46062;-61
2021/11/20 08:01:12;;;;;;;;;6.75;6.75;;;;;9.35;71.57;101939.19;5079764;27;53227;-61
2021/11/20 08:03:37;;;;;;;;;6.00;5.25;;;;;9.35;71.72;101939.19;5098481;27;45653;-61
2021/11/20 08:06:02;;;;;;;;;7.25;5.00;;;;;9.34;71.45;101941.91;5079254;27;63259;-61
2021/11/20 08:08:28;;;;;;;;;7.50;6.25;;;;;9.32;71.58;101938.53;5098066;27;46548;-61
2021/11/20 08:10:53;;;;;;;;;8.00;7.00;;;;;9.31;71.72;101940.31;5098060;27;45288;-61
2021/11/20 08:13:20;;;;;;;;;6.50;6.50;;;;;9.31;71.68;101937.69;5098110;27;45347;-61
2021/11/20 08:15:45;;;;;;;;;8.25;8.25;;;;;9.30;71.73;101938.63;5098136;27;45325;-62
2021/11/20 08:18:10;;;;;;;;;8.00;7.00;;;;;9.30;71.83;101933.38;5079225;27;45958;-62
2021/11/20 08:20:38;;;;;;;;;5.75;5.75;;;;;9.30;71.70;101928.13;5097455;27;65581;-61
2021/11/20 08:23:05;;;;;;;;;6.00;6.00;;;;;9.33;71.63;101927.94;5097912;27;45311;-61
2021/11/20 08:25:30;;;;;;;;;6.00;5.50;;;;;9.32;71.83;101926.25;5097853;27;45399;-61
2021/11/20 08:27:56;;;;;;;;;6.50;5.00;;;;;9.30;71.42;101933.38;5079356;27;46171;-61
2021/11/20 08:30:23;;;;;;;;;6.00;4.75;;;;;9.29;71.38;101936.94;5097657;27;45238;-62
2021/11/20 08:32:49;;;;;;;;;5.25;3.75;;;;;9.25;71.18;101929.38;5097809;27;45327;-61
2021/11/20 08:35:15;;;;;;;;;4.00;4.00;;;;;9.24;71.35;101930.31;5079550;27;45506;-61
2021/11/20 08:37:40;;;;;;;;;5.50;3.50;;;;;9.23;71.43;101928.63;5079256;27;46469;-61
2021/11/20 08:40:07;;;;;;;;;7.00;4.25;;;;;9.24;71.62;101925.06;5096583;27;69525;-61
2021/11/20 08:42:34;;;;;;;;;5.00;3.75;;;;;9.24;71.32;101925.06;5096555;27;45400;-61
2021/11/20 08:44:59;;;;;;;;;6.00;5.50;;;;;9.23;71.30;101921.56;5097444;27;45323;-61
2021/11/20 08:47:25;;;;;;;;;6.75;5.75;;;;;9.25;71.37;101913.63;5097384;27;47116;-61
2021/11/20 08:49:50;;;;;;;;;13.00;10.25;;;;;9.26;71.43;101908.28;5096720;27;63041;-61
2021/11/20 08:52:16;;;;;;;;;8.25;8.25;;;;;9.28;71.38;101908.16;5097669;27;45720;-61
2021/11/20 08:54:41;;;;;;;;;10.50;7.25;;;;;9.27;71.71;101899.47;5097365;27;45159;-61
2021/11/20 08:57:06;;;;;;;;;13.00;10.25;;;;;9.28;72.00;101903.78;5096510;27;70544;-61
2021/11/20 08:59:32;;;;;;;;;25.00;25.00;;;;;9.29;71.86;101900.22;5096344;27;68771;-61
2021/11/20 09:02:23;;;;;;;;;14.25;10.00;;;;;9.33;71.85;101895.63;5096740;27;45458;-61
2021/11/20 09:05:07;;;;;;;;;14.50;12.75;;;;;9.32;71.68;101900.03;5082505;27;45206;-61
2021/11/20 09:07:46;;;;;;;;;19.50;14.25;;;;;9.34;71.60;101895.53;5063800;27;48518;-61
2021/11/20 09:10:14;;;;;;;;;15.50;12.50;;;;;9.34;71.58;101889.44;5097246;27;45385;-61
2021/11/20 09:12:48;;;;;;;;;12.75;10.25;;;;;9.33;71.67;101888.59;5097112;27;45311;-61
2021/11/20 09:15:24;;;;;;;;;14.25;10.50;;;;;9.32;71.65;101892.16;5080033;27;45407;-61
2021/11/20 09:17:50;;;;;;;;;7.50;7.50;;;;;9.29;71.80;101879.25;5078929;27;45518;-61
2021/11/20 09:20:16;;;;;;;;;18.25;17.00;;;;;9.30;71.73;101877.44;5096954;27;45341;-61
2021/11/20 09:22:42;;;;;;;;;11.50;9.00;;;;;9.31;71.53;101877.38;5097160;27;45276;-62
2021/11/20 09:25:07;;;;;;;;;10.25;6.50;;;;;9.31;71.81;101877.38;5096454;27;59167;-61
2021/11/20 09:27:33;;;;;;;;;9.00;7.25;;;;;9.31;71.69;101872.13;5096838;27;46499;-61
2021/11/20 09:29:59;;;;;;;;;11.75;8.75;;;;;9.33;71.33;101878.13;5096957;27;45429;-61
2021/11/20 09:32:24;;;;;;;;;8.75;7.00;;;;;9.34;71.54;101878.94;5097132;27;45366;-62
2021/11/20 09:34:49;;;;;;;;;10.00;6.50;;;;;9.37;71.69;101878.75;5077796;27;59782;-61
2021/11/20 09:37:15;;;;;;;;;7.50;7.50;;;;;9.37;71.56;101878.75;5096066;27;62336;-62
2021/11/20 09:39:41;;;;;;;;;8.75;8.50;;;;;9.39;71.49;101878.69;5096710;27;45477;-61
2021/11/20 09:42:15;;;;;;;;;7.25;7.00;;;;;9.39;71.16;101876.06;5096692;27;51344;-61
2021/11/20 09:44:42;;;;;;;;;6.00;4.25;;;;;9.38;71.17;101875.19;5078840;27;45379;-61
2021/11/20 09:47:15;;;;;;;;;11.50;9.50;;;;;9.38;70.95;101871.75;5078249;27;47267;-61
2021/11/20 09:49:44;;;;;;;;;10.25;7.25;;;;;9.37;70.73;101868.25;5095552;27;45397;-61
2021/11/20 09:52:09;;;;;;;;;8.75;7.75;;;;;9.38;70.72;101864.69;5079074;27;45332;-61
2021/11/20 09:54:39;;;;;;;;;12.50;8.75;;;;;9.39;70.66;101862.94;5078443;27;45597;-61
2021/11/20 09:57:07;;;;;;;;;12.25;10.50;;;;;9.41;70.69;101858.44;5096027;27;45389;-61
2021/11/20 10:00:11;;;;;;;;;15.50;15.50;;;;;9.41;70.52;101858.44;5096309;27;45869;-62
2021/11/20 10:02:55;;;;;;;;;32.25;26.75;;;;;9.39;71.02;101855.91;5054455;27;45337;-62
2021/11/20 10:05:23;;;;;;;;;13.00;12.25;;;;;9.34;71.05;101864.06;5096378;27;45561;-61
2021/11/20 10:08:02;;;;;;;;;12.25;8.75;;;;;9.35;70.86;101859.66;5096390;27;46285;-61
2021/11/20 10:10:45;;;;;;;;;8.50;7.00;;;;;9.35;71.10;101846.53;5080045;27;45898;-62
2021/11/20 10:13:18;;;;;;;;;8.50;5.00;;;;;9.35;71.04;101847.38;5078084;27;45311;-61
2021/11/20 10:15:54;;;;;;;;;6.25;6.00;;;;;9.37;70.90;101835.97;5097827;27;45439;-61
2021/11/20 10:18:24;;;;;;;;;11.00;8.75;;;;;9.39;70.90;101834.09;5081441;27;45504;-62
2021/11/20 10:21:10;;;;;;;;;10.25;9.00;;;;;9.41;70.73;101824.34;5099738;27;45217;-61
2021/11/20 10:24:20;;;;;;;;;14.00;10.00;;;;;9.43;70.75;101835.56;5099839;27;45280;-61
2021/11/20 10:26:45;;;;;;;;;12.50;9.50;;;;;9.43;71.05;101819.84;5026015;27;45549;-61
2021/11/20 10:29:32;;;;;;;;;12.00;8.00;;;;;9.46;70.76;101828.34;5099640;27;46329;-62
2021/11/20 10:32:36;;;;;;;;;9.75;7.00;;;;;9.46;70.91;101819.66;5099563;27;45893;-61
2021/11/20 10:35:31;;;;;;;;;10.75;9.00;;;;;9.45;71.09;101813.53;5088904;27;45314;-62
2021/11/20 10:38:21;;;;;;;;;12.50;10.50;;;;;9.45;71.09;101804.84;5081376;27;45378;-61
2021/11/20 10:40:53;;;;;;;;;15.75;11.00;;;;;9.48;71.27;101807.28;5070259;28;46591;-61
2021/11/20 10:43:37;;;;;;;;;15.25;13.25;;;;;9.49;71.38;101809.78;5079013;28;45334;-61
2021/11/20 10:46:20;;;;;;;;;11.00;10.75;;;;;9.52;70.92;101800.91;5079042;28;45393;-62
2021/11/20 10:49:07;;;;;;;;;18.75;16.25;;;;;9.55;70.84;101802.47;5079240;28;45474;-61
2021/11/20 10:51:44;;;;;;;;;13.25;10.50;;;;;9.56;70.97;101804.16;5045956;28;45387;-61
2021/11/20 10:54:40;;;;;;;;;14.25;10.50;;;;;9.56;70.70;101810.22;5078970;28;45317;-61
2021/11/20 10:57:14;;;;;;;;;14.75;14.00;;;;;9.56;70.63;101804.97;5078796;28;45194;-62
2021/11/20 11:00:01;;;;;;;;;13.75;9.00;;;;;9.57;70.76;101790.91;5078474;28;45324;-61
2021/11/20 11:02:48;;;;;;;;;13.25;9.25;;;;;9.58;70.58;101789.16;5060569;28;46037;-61
2021/11/20 11:05:31;;;;;;;;;16.25;13.00;;;;;9.57;70.53;101790.09;5043424;28;46426;-62
2021/11/20 11:07:59;;;;;;;;;11.00;10.25;;;;;9.56;70.21;101778.75;5060985;28;45332;-61
2021/11/20 11:10:31;;;;;;;;;8.25;7.25;;;;;9.55;70.33;101781.47;5078805;28;45489;-61
2021/11/20 11:13:05;;;;;;;;;17.00;12.75;;;;;9.55;70.26;101770.97;5060444;28;45304;-61
2021/11/20 11:15:45;;;;;;;;;13.50;11.25;;;;;9.55;70.24;101752.63;5060394;28;45384;-61
2021/11/20 11:18:35;;;;;;;;;15.00;10.50;;;;;9.54;70.44;101746.50;5060496;28;45423;-61
2021/11/20 11:21:28;;;;;;;;;14.75;12.75;;;;;9.55;70.45;101735.06;5060391;28;45301;-61
2021/11/20 11:24:20;;;;;;;;;13.75;10.50;;;;;9.57;70.41;101720.06;5078320;28;46191;-61
2021/11/20 11:27:14;;;;;;;;;16.75;12.50;;;;;9.57;70.30;101720.06;5058862;28;45818;-61
2021/11/20 11:30:01;;;;;;;;;14.25;12.00;;;;;9.59;70.36;101717.34;5061342;28;45340;-61
2021/11/20 11:32:27;;;;;;;;;14.00;13.00;;;;;9.57;70.43;101712.19;5060247;28;45373;-61
2021/11/20 11:34:55;;;;;;;;;18.75;15.75;;;;;9.59;70.58;101705.06;5060093;28;46090;-61
2021/11/20 11:37:51;;;;;;;;;13.75;12.75;;;;;9.58;70.44;101698.13;5059995;28;45818;-62
2021/11/20 11:40:27;;;;;;;;;20.25;16.25;;;;;9.59;70.63;101697.19;5057106;28;45463;-61